Colorado Springs, CO (80951)

6:28 AM MDT on March 29, 2015 (GMT -0600)
Carefree Circle S & Windward Circle Village 7 | | Change Station
CLOSE
Current Station
Personal Weather Station
Location: Colorado Springs, CO
Elevation: 6509 ft
Nearby Weather Stations

Elev 6509 ft 38.88 °N, 104.74 °W | Updated 41 minutes ago

Clear
Clear
48.1 °F
Feels Like 48 °F
N
2.0
Wind Variable Wind from North
Gusts 3.0 mph

Today
High -- | Low -- °F
--% Chance of Precip.
Yesterday
High -- | Low -- °F
Precip. -- in
6:48 AM 7:19 PM
Waxing Gibbous, 71% visible
Pressure 29.99 in
Visibility 10.0 miles
Clouds Few 25000 ft
Windchill 48 °F
Dew Point 26 °F
Humidity 41%
Rainfall 0.00 in
Snow Depth Not available.
UV 0.0 out of 12
Pollen 11.30 out of 12
Air Quality Not available.
Flu Activity Not available.
METAR KCOS 291154Z 04013KT 10SM FEW250 08/M04 A3017 RMK AO2 SLP156 T00781039 10156 20078 53020

More Conditions Fewer Conditions

Pressure 29.99 in
Visibility 10.0 miles
Clouds Few 25000 ft
Windchill 48 °F
Dew Point 26 °F
Humidity 41%
Rainfall 0.00 in
Snow Depth Not available.
UV 0.0 out of 12
Pollen 11.30 out of 12
Air Quality Not available.
Flu Activity Not available.
METAR KCOS 291154Z 04013KT 10SM FEW250 08/M04 A3017 RMK AO2 SLP156 T00781039 10156 20078 53020

More Conditions Fewer Conditions

10-Day Weather Forecast

Almanac

Astronomy

Mar. 29, 2015 Rise Set
Actual Time
Civil Twilight
Nautical Twilight
Astronomical Twilight
Moon
Length of Visible Light
Length of Day
Tomorrow will be .
, % of the Moon is Illuminated

Today's Extremes

State Highs State Lows

Community

WunderPhotos

Upload Photos

1,809,229 photos uploaded!

WunderBlogs® & News

Nearby

Air Quality

  Air Quality AQ Index Pollutant
Not available.

Snow Depth

Station Depth Elevation

Earthquake Activity

City Distance Mag. Time & Date
Minimum magnitude displayed is 2.5.

Coastal Water Temperatures

Place Temperature

Stations

Nearby Weather Stations

Station Location Temp. Windchill Dew Point Humidity Wind Precip. Elev Updated Type